createdAt,value
2022-09-03T00:00:18.982Z,13.25
2022-09-03T00:02:26.877Z,12.88
2022-09-03T00:04:41.049Z,13.20
2022-09-03T00:06:49.261Z,13.82
2022-09-03T00:09:14.619Z,12.40
2022-09-03T00:11:20.901Z,13.27
2022-09-03T00:13:35.602Z,12.13
2022-09-03T00:15:40.011Z,12.65
2022-09-03T00:18:05.754Z,11.25
2022-09-03T00:20:18.951Z,12.50
2022-09-03T00:22:27.592Z,12.38
2022-09-03T00:24:34.498Z,10.15
2022-09-03T00:26:37.828Z,11.38
2022-09-03T00:28:45.109Z,9.48
2022-09-03T00:30:57.297Z,9.10
2022-09-03T00:33:10.652Z,8.63
2022-09-03T00:35:36.028Z,8.85
2022-09-03T00:37:38.193Z,9.07
2022-09-03T00:39:40.278Z,9.25
2022-09-03T00:42:21.061Z,8.55
2022-09-03T00:44:48.337Z,7.22
2022-09-03T00:47:11.484Z,7.22
2022-09-03T00:49:31.171Z,5.97
2022-09-03T00:52:00.757Z,6.80
2022-09-03T00:54:27.200Z,5.90
2022-09-03T00:56:49.884Z,5.18
2022-09-03T00:59:06.135Z,5.97
2022-09-03T01:01:21.845Z,6.07
2022-09-03T01:03:36.252Z,5.68
2022-09-03T01:06:20.176Z,5.45
2022-09-03T01:08:51.149Z,5.40
2022-09-03T01:11:35.272Z,5.72
2022-09-03T01:13:41.779Z,5.20
2022-09-03T01:16:05.802Z,5.85
2022-09-03T01:18:21.389Z,5.95
2022-09-03T01:20:39.137Z,6.18
2022-09-03T01:22:58.727Z,5.80
2022-09-03T01:25:14.070Z,5.28
2022-09-03T01:27:32.755Z,5.85
2022-09-03T01:29:40.154Z,6.25
2022-09-03T01:32:00.075Z,6.75
2022-09-03T01:34:13.530Z,9.55
2022-09-03T01:36:34.657Z,8.00
2022-09-03T01:38:48.040Z,6.30
2022-09-03T01:41:24.477Z,6.35
2022-09-03T01:43:44.705Z,6.63
2022-09-03T01:45:54.295Z,6.45
2022-09-03T01:50:40.528Z,6.55
2022-09-03T01:52:55.381Z,7.38
2022-09-03T01:55:10.021Z,7.78
2022-09-03T01:57:42.833Z,8.23
2022-09-03T01:59:49.899Z,8.93
2022-09-03T02:02:20.141Z,8.40
2022-09-03T02:04:24.970Z,8.48
2022-09-03T02:06:27.789Z,7.93
2022-09-03T02:08:30.195Z,7.07
2022-09-03T02:10:44.153Z,7.40
2022-09-03T02:12:49.681Z,7.20
2022-09-03T02:14:51.287Z,7.75
2022-09-03T02:16:53.011Z,6.82
2022-09-03T02:18:57.011Z,7.13
2022-09-03T02:20:59.319Z,7.63
2022-09-03T02:23:00.996Z,9.35
2022-09-03T02:25:02.621Z,9.13
2022-09-03T02:27:04.519Z,7.25
2022-09-03T02:29:06.074Z,6.95
2022-09-03T02:31:07.999Z,7.65
2022-09-03T02:33:09.840Z,8.43
2022-09-03T02:35:11.442Z,7.72
2022-09-03T02:37:15.621Z,8.38
2022-09-03T02:39:17.562Z,9.10
2022-09-03T02:41:19.561Z,8.88
2022-09-03T02:43:32.959Z,7.93
2022-09-03T02:45:37.407Z,10.23
2022-09-03T02:47:40.912Z,8.50
2022-09-03T02:49:42.531Z,8.48
2022-09-03T02:51:45.085Z,8.60
2022-09-03T02:53:46.694Z,8.20
2022-09-03T02:55:48.500Z,7.90
2022-09-03T02:57:50.280Z,9.35
2022-09-03T02:59:51.812Z,8.43
2022-09-03T03:01:53.603Z,8.23
2022-09-03T03:03:55.324Z,8.57
2022-09-03T03:05:59.094Z,7.68
2022-09-03T03:08:01.502Z,7.13
2022-09-03T03:10:03.361Z,6.68
2022-09-03T03:12:05.364Z,6.78
2022-09-03T03:14:06.957Z,7.45
2022-09-03T03:16:08.505Z,7.05
2022-09-03T03:18:14.141Z,7.25
2022-09-03T03:20:15.708Z,6.90
2022-09-03T03:22:17.257Z,7.93
2022-09-03T03:24:18.971Z,8.10
2022-09-03T03:26:21.508Z,9.25
2022-09-03T03:28:23.175Z,8.30
2022-09-03T03:30:24.780Z,7.82
2022-09-03T03:32:26.935Z,8.70
2022-09-03T03:34:28.531Z,7.75
2022-09-03T03:36:32.476Z,8.63
2022-09-03T03:38:34.711Z,8.52
2022-09-03T03:40:38.625Z,8.82
2022-09-03T03:42:40.152Z,9.10
2022-09-03T03:44:44.001Z,7.47
2022-09-03T03:46:45.627Z,8.13
2022-09-03T03:48:51.528Z,8.45
2022-09-03T03:50:53.503Z,8.70
2022-09-03T03:52:55.095Z,8.45
2022-09-03T03:54:57.333Z,9.23
2022-09-03T03:56:58.897Z,11.15
2022-09-03T03:59:00.733Z,11.90
2022-09-03T04:01:07.579Z,12.98
2022-09-03T04:03:09.183Z,11.48
2022-09-03T04:05:10.829Z,9.40
2022-09-03T04:07:13.242Z,9.40
2022-09-03T04:09:14.796Z,8.63
2022-09-03T04:11:18.873Z,13.80
2022-09-03T04:13:20.705Z,14.68
2022-09-03T04:15:22.253Z,12.15
2022-09-03T04:17:25.404Z,11.18
2022-09-03T04:19:30.304Z,10.55
2022-09-03T04:21:31.876Z,8.98
2022-09-03T04:23:34.699Z,9.30
2022-09-03T04:25:36.871Z,7.70
2022-09-03T04:27:38.483Z,7.78
2022-09-03T04:29:40.049Z,7.15
2022-09-03T04:32:01.586Z,7.38
2022-09-03T04:34:03.511Z,7.38
2022-09-03T04:36:10.814Z,7.78
2022-09-03T04:38:12.392Z,7.72
2022-09-03T04:40:14.157Z,6.95
2022-09-03T04:42:16.298Z,6.95
2022-09-03T04:44:17.836Z,7.43
2022-09-03T04:46:20.921Z,7.72
2022-09-03T04:48:22.605Z,7.45
2022-09-03T04:50:24.229Z,7.57
2022-09-03T04:52:30.113Z,8.45
2022-09-03T04:54:31.691Z,7.50
2022-09-03T04:56:35.302Z,6.15
2022-09-03T04:58:36.833Z,6.60
2022-09-03T05:00:40.313Z,6.60
2022-09-03T05:02:41.951Z,6.10
2022-09-03T05:04:43.533Z,5.70
2022-09-03T05:06:45.441Z,5.90
2022-09-03T05:08:51.238Z,5.20
2022-09-03T05:11:00.262Z,5.10
2022-09-03T05:13:04.879Z,5.85
2022-09-03T05:15:06.870Z,7.63
2022-09-03T05:17:08.398Z,7.68
2022-09-03T05:19:10.792Z,6.28
2022-09-03T05:21:15.106Z,7.47
2022-09-03T05:23:16.834Z,8.95
2022-09-03T05:25:19.089Z,8.32
2022-09-03T05:27:20.901Z,6.45
2022-09-03T05:29:22.897Z,5.38
2022-09-03T05:31:26.459Z,4.72
2022-09-03T05:33:28.364Z,4.05
2022-09-03T05:35:30.377Z,3.63
2022-09-03T05:37:32.137Z,3.75
2022-09-03T05:39:33.789Z,3.40
2022-09-03T05:41:35.446Z,3.42
2022-09-03T05:43:37.570Z,3.88
2022-09-03T05:45:39.505Z,3.33
2022-09-03T05:47:41.159Z,3.25
2022-09-03T05:49:42.727Z,3.65
2022-09-03T05:51:44.571Z,3.53
2022-09-03T05:53:47.741Z,3.45
2022-09-03T05:55:58.876Z,3.60
2022-09-03T05:58:00.477Z,3.33
2022-09-03T06:00:02.312Z,3.30
2022-09-03T06:02:04.010Z,3.05
2022-09-03T06:04:11.286Z,2.88
2022-09-03T06:06:16.355Z,3.08
2022-09-03T06:08:17.898Z,4.10
2022-09-03T06:10:25.005Z,3.22
2022-09-03T06:12:27.843Z,3.70
2022-09-03T06:14:29.556Z,3.53
2022-09-03T06:16:32.866Z,3.90
2022-09-03T06:18:34.618Z,3.75
2022-09-03T06:20:37.389Z,3.80
2022-09-03T06:22:39.149Z,3.60
2022-09-03T06:24:40.728Z,4.60
2022-09-03T06:26:43.014Z,4.25
2022-09-03T06:28:44.923Z,4.43
2022-09-03T06:30:48.086Z,4.65
2022-09-03T06:32:50.680Z,5.25
2022-09-03T06:34:52.217Z,3.85
2022-09-03T06:36:54.717Z,3.70
2022-09-03T06:38:56.912Z,3.53
2022-09-03T06:41:04.315Z,4.10
2022-09-03T06:43:05.844Z,3.90
2022-09-03T06:45:12.102Z,3.22
2022-09-03T06:47:13.906Z,3.80
2022-09-03T06:49:15.695Z,3.60
2022-09-03T06:51:19.988Z,3.45
2022-09-03T06:53:23.796Z,3.13
2022-09-03T06:55:31.698Z,3.72
2022-09-03T06:57:33.365Z,4.18
2022-09-03T06:59:34.932Z,4.10
2022-09-03T07:01:43.744Z,3.72
2022-09-03T07:03:47.801Z,3.78
2022-09-03T07:05:49.407Z,3.75
2022-09-03T07:07:50.945Z,3.45
2022-09-03T07:09:52.867Z,3.75
2022-09-03T07:11:54.737Z,3.75
2022-09-03T07:13:58.050Z,3.65
2022-09-03T07:16:02.078Z,3.97
2022-09-03T07:18:03.875Z,4.00
2022-09-03T07:20:05.744Z,3.90
2022-09-03T07:22:08.407Z,4.55
2022-09-03T07:24:10.515Z,3.20
2022-09-03T07:26:17.714Z,3.90
2022-09-03T07:28:19.341Z,3.42
2022-09-03T07:30:21.000Z,3.70
2022-09-03T07:32:22.538Z,3.72
2022-09-03T07:34:27.173Z,3.80
2022-09-03T07:36:35.268Z,3.65
2022-09-03T07:38:37.174Z,3.67
2022-09-03T07:40:39.579Z,3.97
2022-09-03T07:42:41.509Z,3.95
2022-09-03T07:44:43.167Z,4.00
2022-09-03T07:46:46.248Z,4.13
2022-09-03T07:48:49.115Z,3.95
2022-09-03T07:50:51.133Z,4.13
2022-09-03T07:52:59.166Z,3.80
2022-09-03T07:55:00.729Z,4.40
2022-09-03T07:57:02.362Z,3.60
2022-09-03T07:59:04.520Z,3.78
2022-09-03T08:01:28.774Z,4.45
2022-09-03T08:03:30.376Z,4.60
2022-09-03T08:05:33.233Z,4.50
2022-09-03T08:07:34.799Z,4.50
2022-09-03T08:09:36.354Z,4.40
2022-09-03T08:11:39.984Z,4.20
2022-09-03T08:13:44.009Z,4.75
2022-09-03T08:15:54.978Z,4.18
2022-09-03T08:17:59.635Z,3.95
2022-09-03T08:20:05.781Z,3.95
2022-09-03T08:22:07.517Z,4.00
2022-09-03T08:24:09.591Z,4.43
2022-09-03T08:26:11.665Z,3.97
2022-09-03T08:28:13.235Z,4.28
2022-09-03T08:30:14.928Z,4.00
2022-09-03T08:32:16.485Z,4.30
2022-09-03T08:34:18.235Z,3.47
2022-09-03T08:36:22.860Z,3.72
2022-09-03T08:38:25.203Z,3.75
2022-09-03T08:40:26.878Z,5.75
2022-09-03T08:42:49.375Z,4.97
2022-09-03T08:44:59.728Z,4.07
2022-09-03T08:47:05.896Z,3.88
2022-09-03T08:49:10.562Z,3.55
2022-09-03T08:51:12.771Z,3.90
2022-09-03T08:53:36.735Z,3.53
2022-09-03T08:55:45.043Z,4.10
2022-09-03T08:57:49.512Z,3.55
2022-09-03T08:59:54.413Z,3.40
2022-09-03T09:02:10.898Z,4.10
2022-09-03T09:04:32.041Z,4.07
2022-09-03T09:06:59.066Z,3.20
2022-09-03T09:09:30.468Z,3.75
2022-09-03T09:11:56.507Z,4.72
2022-09-03T09:14:16.349Z,3.80
2022-09-03T09:18:52.494Z,2.78
2022-09-03T09:21:07.735Z,4.30
2022-09-03T09:23:15.412Z,4.20
2022-09-03T09:25:22.374Z,4.25
2022-09-03T09:27:24.584Z,3.95
2022-09-03T09:29:28.750Z,3.42
2022-09-03T09:31:31.009Z,4.80
2022-09-03T09:33:33.229Z,4.63
2022-09-03T09:35:37.059Z,3.80
2022-09-03T09:37:52.940Z,4.15
2022-09-03T09:39:59.790Z,3.30
2022-09-03T09:42:09.453Z,3.40
2022-09-03T09:44:20.157Z,3.40
2022-09-03T09:46:24.546Z,3.15
2022-09-03T09:48:31.784Z,3.88
2022-09-03T09:50:33.441Z,3.03
2022-09-03T09:52:35.248Z,3.97
2022-09-03T09:54:36.801Z,3.80
2022-09-03T09:56:38.340Z,3.53
2022-09-03T09:58:40.148Z,4.45
2022-09-03T10:00:42.911Z,4.72
2022-09-03T10:02:52.139Z,3.80
2022-09-03T10:05:15.886Z,4.07
2022-09-03T10:07:24.977Z,4.00
2022-09-03T10:09:31.184Z,3.87
2022-09-03T10:11:37.089Z,3.28
2022-09-03T10:13:44.234Z,3.60
2022-09-03T10:16:15.072Z,4.00
2022-09-03T10:18:38.065Z,3.78
2022-09-03T10:20:47.383Z,3.92
2022-09-03T10:22:56.949Z,3.50
2022-09-03T10:25:01.126Z,3.63
2022-09-03T10:27:02.726Z,3.67
2022-09-03T10:29:06.480Z,3.92
2022-09-03T10:31:25.985Z,3.85
2022-09-03T10:33:33.583Z,3.58
2022-09-03T10:35:38.223Z,4.18
2022-09-03T10:37:41.081Z,3.33
2022-09-03T10:40:06.945Z,4.00
2022-09-03T10:42:45.806Z,5.07
2022-09-03T10:45:01.789Z,4.05
2022-09-03T10:47:12.909Z,3.95
2022-09-03T10:49:23.535Z,4.00
2022-09-03T10:51:49.375Z,3.90
2022-09-03T10:54:12.875Z,3.65
2022-09-03T10:56:37.539Z,4.25
2022-09-03T10:58:51.380Z,4.18
2022-09-03T11:00:59.116Z,3.50
2022-09-03T11:03:07.406Z,3.58
2022-09-03T11:05:38.578Z,3.80
2022-09-03T11:07:44.635Z,4.43
2022-09-03T11:09:58.264Z,3.47
2022-09-03T11:12:12.088Z,4.00
2022-09-03T11:14:25.497Z,3.15
2022-09-03T11:16:31.733Z,3.13
2022-09-03T11:18:53.348Z,3.80
2022-09-03T11:21:01.945Z,3.38
2022-09-03T11:23:05.871Z,4.05
2022-09-03T11:25:08.873Z,3.45
2022-09-03T11:27:36.256Z,3.30
2022-09-03T11:29:46.175Z,3.25
2022-09-03T11:33:58.278Z,3.50
2022-09-03T11:36:01.779Z,3.67
2022-09-03T11:38:05.836Z,3.70
2022-09-03T11:40:18.333Z,3.50
2022-09-03T11:42:30.218Z,4.05
2022-09-03T11:44:42.691Z,3.95
2022-09-03T11:46:54.968Z,3.55
2022-09-03T11:49:09.497Z,3.72
2022-09-03T11:51:35.500Z,3.70
2022-09-03T11:53:37.102Z,3.72
2022-09-03T11:56:14.957Z,3.65
2022-09-03T11:58:27.365Z,3.42
2022-09-03T12:00:28.914Z,3.50
2022-09-03T12:02:35.982Z,3.17
2022-09-03T12:04:56.545Z,3.47
2022-09-03T12:07:02.902Z,3.35
2022-09-03T12:09:22.331Z,3.40
2022-09-03T12:11:54.289Z,3.67
2022-09-03T12:14:06.478Z,3.75
2022-09-03T12:16:23.061Z,3.72
2022-09-03T12:18:31.182Z,3.53
2022-09-03T12:20:32.751Z,3.83
2022-09-03T12:22:38.718Z,4.57
2022-09-03T12:24:42.954Z,3.10
2022-09-03T12:26:44.760Z,3.67
2022-09-03T12:28:49.109Z,3.63
2022-09-03T12:30:53.664Z,3.75
2022-09-03T12:33:05.177Z,4.40
2022-09-03T12:40:05.717Z,3.95
2022-09-03T12:42:14.490Z,4.10
2022-09-03T12:44:39.517Z,3.65
2022-09-03T12:46:41.821Z,3.78
2022-09-03T12:53:49.907Z,4.10
2022-09-03T12:55:57.233Z,3.70
2022-09-03T12:58:14.292Z,5.65
2022-09-03T13:00:17.242Z,9.13
2022-09-03T13:02:26.173Z,5.70
2022-09-03T13:04:30.221Z,4.13
2022-09-03T13:06:50.345Z,4.85
2022-09-03T13:08:54.570Z,4.32
2022-09-03T13:10:58.969Z,4.07
2022-09-03T13:13:02.796Z,4.43
2022-09-03T13:15:09.444Z,4.22
2022-09-03T13:17:24.638Z,5.03
2022-09-03T13:19:48.001Z,4.88
2022-09-03T13:22:04.811Z,3.92
2022-09-03T13:24:21.403Z,3.15
2022-09-03T13:26:41.596Z,3.63
2022-09-03T13:28:58.294Z,3.80
2022-09-03T13:31:03.665Z,3.60
2022-09-03T13:33:20.551Z,3.95
2022-09-03T13:35:39.787Z,3.78
2022-09-03T13:37:49.462Z,3.97
2022-09-03T13:40:04.246Z,4.18
2022-09-03T13:42:18.912Z,3.22
2022-09-03T13:44:33.060Z,3.20
2022-09-03T13:46:50.551Z,3.05
2022-09-03T13:49:16.448Z,3.75
2022-09-03T13:51:23.751Z,3.60
2022-09-03T13:53:36.785Z,2.72
2022-09-03T13:55:48.298Z,3.03
2022-09-03T13:57:58.336Z,3.47
2022-09-03T14:00:11.101Z,3.78
2022-09-03T14:02:33.809Z,3.60
2022-09-03T14:04:54.490Z,3.90
2022-09-03T14:07:06.948Z,3.97
2022-09-03T14:09:34.008Z,3.25
2022-09-03T14:11:55.195Z,3.70
2022-09-03T14:14:08.862Z,2.67
2022-09-03T14:16:31.568Z,2.53
2022-09-03T14:18:42.159Z,2.53
2022-09-03T14:21:03.743Z,2.10
2022-09-03T14:23:24.233Z,3.45
2022-09-03T14:25:27.219Z,2.50
2022-09-03T14:27:31.331Z,2.72
2022-09-03T14:29:35.030Z,2.92
2022-09-03T14:31:52.366Z,2.88
2022-09-03T14:34:06.265Z,3.20
2022-09-03T14:36:12.313Z,2.70
2022-09-03T14:38:13.880Z,2.70
2022-09-03T14:40:22.465Z,3.15
2022-09-03T14:42:57.942Z,2.67
2022-09-03T14:45:36.465Z,2.92
2022-09-03T14:47:50.008Z,3.42
2022-09-03T14:50:22.346Z,2.70
2022-09-03T14:52:53.003Z,2.50
2022-09-03T14:55:28.838Z,2.75
2022-09-03T14:57:45.585Z,2.33
2022-09-03T14:59:54.715Z,3.00
2022-09-03T15:02:25.532Z,2.85
2022-09-03T15:04:47.270Z,3.22
2022-09-03T15:06:57.722Z,3.15
2022-09-03T15:09:17.651Z,4.50
2022-09-03T15:13:36.374Z,4.55
2022-09-03T15:15:41.202Z,4.88
2022-09-03T15:17:53.201Z,4.50
2022-09-03T15:20:03.877Z,5.13
2022-09-03T15:22:35.138Z,4.20
2022-09-03T15:24:48.013Z,4.75
2022-09-03T15:27:12.056Z,3.42
2022-09-03T15:29:40.086Z,3.53
2022-09-03T15:32:19.656Z,4.35
2022-09-03T15:35:06.523Z,5.32
2022-09-03T15:37:17.758Z,5.07
2022-09-03T15:39:29.635Z,3.30
2022-09-03T15:41:37.092Z,3.47
2022-09-03T15:43:39.322Z,3.58
2022-09-03T15:45:49.558Z,3.53
2022-09-03T15:47:56.985Z,3.22
2022-09-03T15:50:01.800Z,3.45
2022-09-03T15:52:48.660Z,3.10
2022-09-03T15:55:08.379Z,3.30
2022-09-03T15:57:18.289Z,3.03
2022-09-03T16:01:32.481Z,2.95
2022-09-03T16:03:45.504Z,3.33
2022-09-03T16:05:59.707Z,3.45
2022-09-03T16:08:25.679Z,3.60
2022-09-03T16:11:10.092Z,3.20
2022-09-03T16:13:51.997Z,3.40
2022-09-03T16:16:28.304Z,4.57
2022-09-03T16:18:30.539Z,3.42
2022-09-03T16:20:48.624Z,5.25
2022-09-03T16:23:12.093Z,5.90
2022-09-03T16:25:18.672Z,7.43
2022-09-03T16:27:25.926Z,6.22
2022-09-03T16:29:30.926Z,4.43
2022-09-03T16:31:41.706Z,6.97
2022-09-03T16:33:47.618Z,3.75
2022-09-03T16:36:07.383Z,4.85
2022-09-03T16:38:32.771Z,4.07
2022-09-03T16:40:49.348Z,4.88
2022-09-03T16:43:39.715Z,5.95
2022-09-03T16:46:15.031Z,5.90
2022-09-03T16:48:31.901Z,6.03
2022-09-03T16:50:53.252Z,6.53
2022-09-03T16:53:10.596Z,7.10
2022-09-03T16:55:25.972Z,9.88
2022-09-03T16:57:54.519Z,11.60
2022-09-03T17:00:11.782Z,11.48
2022-09-03T17:02:47.345Z,11.40
2022-09-03T17:04:59.883Z,7.97
2022-09-03T17:07:30.965Z,7.88
2022-09-03T17:09:44.744Z,9.60
2022-09-03T17:12:03.075Z,13.82
2022-09-03T17:14:10.444Z,14.27
2022-09-03T17:16:30.462Z,12.27
2022-09-03T17:19:01.795Z,12.02
2022-09-03T17:21:24.153Z,8.50
2022-09-03T17:23:50.148Z,8.77
2022-09-03T17:25:56.469Z,9.52
2022-09-03T17:28:25.052Z,11.07
2022-09-03T17:31:24.032Z,10.00
2022-09-03T17:33:36.492Z,10.40
2022-09-03T17:35:42.170Z,20.85
2022-09-03T17:37:57.307Z,8.18
2022-09-03T17:40:15.918Z,25.55
2022-09-03T17:42:28.926Z,11.23
2022-09-03T17:44:42.115Z,7.95
2022-09-03T17:47:12.528Z,5.72
2022-09-03T17:49:24.939Z,6.20
2022-09-03T17:52:00.890Z,6.22
2022-09-03T17:54:16.574Z,6.40
2022-09-03T17:56:31.423Z,5.95
2022-09-03T17:58:41.129Z,5.85
2022-09-03T18:01:15.875Z,9.00
2022-09-03T18:03:32.987Z,7.47
2022-09-03T18:05:42.567Z,36.60
2022-09-03T18:07:55.594Z,39.45
2022-09-03T18:10:21.938Z,37.13
2022-09-03T18:12:33.824Z,37.22
2022-09-03T18:14:49.719Z,35.80
2022-09-03T18:17:04.823Z,29.15
2022-09-03T18:19:06.577Z,16.23
2022-09-03T18:21:31.992Z,12.00
2022-09-03T18:24:21.044Z,9.13
2022-09-03T18:26:46.638Z,10.43
2022-09-03T18:29:14.943Z,15.52
2022-09-03T18:31:35.216Z,14.35
2022-09-03T18:33:55.831Z,33.28
2022-09-03T18:36:17.797Z,42.08
2022-09-03T18:38:46.781Z,27.42
2022-09-03T18:41:27.165Z,19.07
2022-09-03T18:43:57.798Z,8.40
2022-09-03T18:49:47.177Z,9.13
2022-09-03T18:52:23.233Z,7.97
2022-09-03T18:55:07.778Z,6.28
2022-09-03T18:57:44.355Z,7.38
2022-09-03T19:00:29.101Z,7.85
2022-09-03T19:03:16.260Z,8.02
2022-09-03T19:05:49.591Z,9.30
2022-09-03T19:08:21.836Z,8.50
2022-09-03T19:10:48.121Z,7.72
2022-09-03T19:13:30.422Z,7.00
2022-09-03T19:15:56.506Z,9.05
2022-09-03T19:18:38.864Z,9.45
2022-09-03T19:21:06.779Z,9.30
2022-09-03T19:23:28.817Z,9.55
2022-09-03T19:25:49.561Z,8.18
2022-09-03T19:28:21.723Z,8.00
2022-09-03T19:31:13.991Z,7.40
2022-09-03T19:33:51.665Z,7.10
2022-09-03T19:36:17.770Z,7.50
2022-09-03T19:39:10.683Z,7.55
2022-09-03T19:41:51.240Z,7.22
2022-09-03T19:44:35.245Z,6.78
2022-09-03T19:47:15.407Z,7.40
2022-09-03T19:49:45.032Z,5.53
2022-09-03T19:52:16.613Z,6.32
2022-09-03T19:54:41.512Z,4.78
2022-09-03T19:57:02.981Z,5.78
2022-09-03T19:59:28.413Z,5.75
2022-09-03T20:01:53.429Z,7.28
2022-09-03T20:04:15.610Z,5.90
2022-09-03T20:06:36.159Z,5.65
2022-09-03T20:08:57.100Z,5.55
2022-09-03T20:11:00.980Z,5.50
2022-09-03T20:13:08.463Z,4.97
2022-09-03T20:15:10.546Z,5.78
2022-09-03T20:17:35.865Z,5.78
2022-09-03T20:19:59.361Z,6.13
2022-09-03T20:22:31.241Z,5.57
2022-09-03T20:24:50.617Z,5.43
2022-09-03T20:27:27.176Z,6.78
2022-09-03T20:29:49.004Z,11.80
2022-09-03T20:32:32.173Z,8.57
2022-09-03T20:34:53.002Z,10.23
2022-09-03T20:37:11.858Z,8.35
2022-09-03T20:39:26.204Z,6.53
2022-09-03T20:41:57.984Z,6.03
2022-09-03T20:44:15.333Z,4.80
2022-09-03T20:46:30.136Z,5.03
2022-09-03T20:48:49.390Z,4.85
2022-09-03T20:50:56.735Z,4.32
2022-09-03T20:53:38.196Z,4.43
2022-09-03T20:55:44.433Z,4.60
2022-09-03T20:58:01.149Z,4.47
2022-09-03T21:00:10.986Z,3.92
2022-09-03T21:04:31.312Z,4.50
2022-09-03T21:07:06.374Z,4.30
2022-09-03T21:09:48.534Z,4.20
2022-09-03T21:12:07.390Z,4.25
2022-09-03T21:14:21.249Z,4.07
2022-09-03T21:16:58.089Z,4.22
2022-09-03T21:19:16.785Z,4.60
2022-09-03T21:21:36.070Z,4.38
2022-09-03T21:23:44.226Z,4.75
2022-09-03T21:25:53.235Z,3.90
2022-09-03T21:27:57.806Z,4.67
2022-09-03T21:30:02.045Z,4.22
2022-09-03T21:32:30.530Z,4.68
2022-09-03T21:35:03.987Z,4.53
2022-09-03T21:37:06.239Z,5.25
2022-09-03T21:39:13.902Z,5.28
2022-09-03T21:41:35.904Z,4.57
2022-09-03T21:43:44.293Z,4.97
2022-09-03T21:46:15.406Z,4.35
2022-09-03T21:48:22.307Z,4.22
2022-09-03T21:50:31.797Z,4.90
2022-09-03T21:52:42.333Z,4.45
2022-09-03T21:54:43.911Z,4.78
2022-09-03T21:57:03.550Z,4.53
2022-09-03T21:59:32.624Z,4.22
2022-09-03T22:02:04.605Z,4.87
2022-09-03T22:04:06.265Z,4.43
2022-09-03T22:06:16.215Z,5.20
2022-09-03T22:10:35.343Z,4.88
2022-09-03T22:12:39.444Z,4.75
2022-09-03T22:14:48.023Z,5.25
2022-09-03T22:16:54.599Z,5.43
2022-09-03T22:18:56.350Z,5.32
2022-09-03T22:21:23.628Z,4.97
2022-09-03T22:23:31.358Z,4.80
2022-09-03T22:26:07.445Z,5.30
2022-09-03T22:28:15.686Z,5.00
2022-09-03T22:30:20.063Z,5.03
2022-09-03T22:32:42.068Z,5.57
2022-09-03T22:35:09.550Z,5.00
2022-09-03T22:37:31.053Z,5.20
2022-09-03T22:39:36.651Z,4.85
2022-09-03T22:42:01.483Z,5.13
2022-09-03T22:44:14.322Z,5.20
2022-09-03T22:46:20.571Z,4.82
2022-09-03T22:48:24.831Z,5.70
2022-09-03T22:50:37.076Z,5.28
2022-09-03T22:52:42.228Z,5.22
2022-09-03T22:55:08.168Z,5.63
2022-09-03T22:57:10.999Z,5.20
2022-09-03T22:59:37.577Z,5.50
2022-09-03T23:01:56.807Z,6.05
2022-09-03T23:04:07.543Z,5.95
2022-09-03T23:06:27.029Z,5.53
2022-09-03T23:08:42.028Z,5.88
2022-09-03T23:11:01.133Z,6.03
2022-09-03T23:13:16.119Z,6.10
2022-09-03T23:15:26.019Z,6.75
2022-09-03T23:19:40.965Z,6.35
2022-09-03T23:22:00.336Z,6.75
2022-09-03T23:24:06.397Z,7.75
2022-09-03T23:26:27.145Z,6.60
2022-09-03T23:28:38.332Z,7.20
2022-09-03T23:30:41.300Z,7.57
2022-09-03T23:32:43.965Z,7.82
2022-09-03T23:34:45.619Z,8.95
2022-09-03T23:37:35.328Z,8.00
2022-09-03T23:42:15.031Z,7.68
2022-09-03T23:44:40.960Z,7.47
2022-09-03T23:47:23.866Z,7.95
2022-09-03T23:49:41.819Z,6.25
2022-09-03T23:51:54.320Z,6.75
2022-09-03T23:54:20.225Z,7.40
2022-09-03T23:56:27.393Z,6.80
2022-09-03T23:58:52.111Z,6.82
